createdAt,value
2023-04-08T00:00:27.303Z,6.19
2023-04-08T00:01:50.228Z,6.15
2023-04-08T00:02:53.167Z,6.16
2023-04-08T00:03:56.444Z,6.16
2023-04-08T00:04:59.633Z,6.15
2023-04-08T00:06:03.984Z,6.13
2023-04-08T00:07:07.375Z,6.15
2023-04-08T00:08:10.324Z,6.11
2023-04-08T00:09:13.224Z,6.12
2023-04-08T00:10:16.461Z,6.07
2023-04-08T00:11:19.310Z,6.05
2023-04-08T00:12:22.318Z,6.03
2023-04-08T00:13:26.277Z,6.06
2023-04-08T00:14:29.130Z,6.03
2023-04-08T00:15:31.967Z,5.99
2023-04-08T00:16:35.056Z,5.97
2023-04-08T00:17:38.340Z,5.98
2023-04-08T00:18:41.430Z,5.94
2023-04-08T00:19:45.105Z,5.93
2023-04-08T00:20:48.395Z,5.90
2023-04-08T00:21:51.789Z,5.90
2023-04-08T00:22:54.638Z,5.87
2023-04-08T00:23:57.611Z,5.85
2023-04-08T00:25:00.723Z,5.82
2023-04-08T00:26:03.706Z,5.79
2023-04-08T00:27:06.654Z,5.77
2023-04-08T00:28:09.630Z,5.76
2023-04-08T00:29:13.453Z,5.72
2023-04-08T00:30:17.153Z,5.67
2023-04-08T00:31:22.018Z,5.64
2023-04-08T00:32:27.667Z,5.60
2023-04-08T00:33:30.518Z,5.58
2023-04-08T00:34:33.441Z,5.58
2023-04-08T00:35:36.795Z,5.53
2023-04-08T00:36:40.257Z,5.51
2023-04-08T00:37:43.203Z,5.48
2023-04-08T00:38:46.073Z,5.43
2023-04-08T00:39:48.901Z,5.41
2023-04-08T00:40:51.795Z,5.40
2023-04-08T00:41:54.701Z,5.36
2023-04-08T00:42:58.713Z,5.34
2023-04-08T00:44:02.161Z,5.30
2023-04-08T00:45:05.565Z,5.30
2023-04-08T00:46:09.854Z,5.24
2023-04-08T00:47:13.763Z,5.23
2023-04-08T00:48:16.633Z,5.22
2023-04-08T00:49:20.111Z,5.21
2023-04-08T00:50:23.387Z,5.19
2023-04-08T00:51:26.377Z,5.17
2023-04-08T00:52:29.305Z,5.14
2023-04-08T00:53:32.646Z,5.11
2023-04-08T00:54:37.237Z,5.12
2023-04-08T00:55:40.106Z,5.09
2023-04-08T00:56:44.609Z,5.07
2023-04-08T00:57:48.743Z,5.07
2023-04-08T00:58:55.172Z,5.06
2023-04-08T00:59:59.675Z,5.05
2023-04-08T01:01:11.342Z,4.99
2023-04-08T01:02:35.717Z,4.98
2023-04-08T01:03:58.219Z,4.99
2023-04-08T01:05:08.213Z,4.96
2023-04-08T01:06:22.620Z,4.95
2023-04-08T01:07:31.381Z,4.91
2023-04-08T01:08:38.435Z,4.89
2023-04-08T01:09:48.552Z,4.89
2023-04-08T01:10:58.400Z,4.87
2023-04-08T01:12:06.170Z,4.83
2023-04-08T01:13:12.278Z,4.84
2023-04-08T01:14:21.143Z,4.82
2023-04-08T01:15:29.218Z,4.80
2023-04-08T01:16:32.646Z,4.81
2023-04-08T01:17:37.843Z,4.77
2023-04-08T01:18:44.671Z,4.78
2023-04-08T01:19:49.496Z,4.77
2023-04-08T01:20:54.801Z,4.73
2023-04-08T01:22:09.111Z,4.73
2023-04-08T01:24:02.297Z,4.71
2023-04-08T01:25:08.886Z,4.65
2023-04-08T01:26:21.534Z,4.63
2023-04-08T01:27:24.890Z,4.63
2023-04-08T01:28:31.381Z,4.61
2023-04-08T01:29:36.626Z,4.54
2023-04-08T01:30:43.018Z,4.52
2023-04-08T01:31:47.209Z,4.51
2023-04-08T01:32:52.402Z,4.50
2023-04-08T01:33:57.716Z,4.48
2023-04-08T01:35:02.497Z,4.44
2023-04-08T01:36:06.766Z,4.42
2023-04-08T01:37:15.577Z,4.40
2023-04-08T01:38:21.109Z,4.37
2023-04-08T01:39:26.129Z,4.35
2023-04-08T01:40:29.884Z,4.35
2023-04-08T01:41:36.161Z,4.33
2023-04-08T01:42:39.958Z,4.34
2023-04-08T01:43:43.731Z,4.29
2023-04-08T01:44:48.048Z,4.30
2023-04-08T01:45:54.640Z,4.28
2023-04-08T01:46:58.273Z,4.25
2023-04-08T01:48:02.486Z,4.21
2023-04-08T01:49:07.553Z,4.20
2023-04-08T01:50:13.632Z,4.17
2023-04-08T01:51:17.154Z,4.18
2023-04-08T01:52:23.137Z,4.12
2023-04-08T01:53:26.148Z,4.13
2023-04-08T01:54:30.142Z,4.09
2023-04-08T01:55:33.460Z,4.10
2023-04-08T01:56:42.489Z,4.05
2023-04-08T01:57:51.394Z,4.05
2023-04-08T01:58:56.070Z,4.01
2023-04-08T02:00:05.642Z,3.95
2023-04-08T02:01:25.555Z,3.92
2023-04-08T02:02:30.159Z,3.87
2023-04-08T02:03:36.017Z,3.83
2023-04-08T02:04:39.121Z,3.77
2023-04-08T02:05:42.329Z,3.74
2023-04-08T02:06:47.193Z,3.71
2023-04-08T02:07:50.846Z,3.68
2023-04-08T02:08:54.564Z,3.68
2023-04-08T02:09:57.570Z,3.66
2023-04-08T02:11:00.484Z,3.64
2023-04-08T02:12:03.598Z,3.62
2023-04-08T02:13:07.670Z,3.59
2023-04-08T02:14:11.092Z,3.55
2023-04-08T02:15:15.110Z,3.48
2023-04-08T02:16:21.154Z,3.41
2023-04-08T02:17:27.673Z,3.35
2023-04-08T02:18:32.540Z,3.34
2023-04-08T02:19:52.838Z,3.28
2023-04-08T02:21:09.508Z,3.27
2023-04-08T02:22:19.925Z,3.25
2023-04-08T02:23:27.648Z,3.23
2023-04-08T02:24:33.869Z,3.22
2023-04-08T02:25:40.386Z,3.21
2023-04-08T02:26:45.061Z,3.19
2023-04-08T02:27:51.394Z,3.16
2023-04-08T02:28:56.369Z,3.10
2023-04-08T02:30:00.893Z,3.07
2023-04-08T02:31:05.859Z,3.04
2023-04-08T02:32:12.388Z,3.02
2023-04-08T02:33:21.101Z,3.00
2023-04-08T02:34:25.156Z,2.97
2023-04-08T02:35:29.041Z,2.92
2023-04-08T02:36:34.320Z,2.86
2023-04-08T02:37:39.239Z,2.85
2023-04-08T02:38:42.128Z,2.80
2023-04-08T02:39:45.105Z,2.79
2023-04-08T02:40:51.206Z,2.81
2023-04-08T02:41:54.126Z,2.76
2023-04-08T02:42:59.038Z,2.75
2023-04-08T02:44:02.398Z,2.76
2023-04-08T02:45:06.827Z,2.72
2023-04-08T02:46:11.766Z,2.73
2023-04-08T02:47:14.788Z,2.71
2023-04-08T02:48:17.640Z,2.69
2023-04-08T02:49:20.455Z,2.70
2023-04-08T02:50:23.430Z,2.68
2023-04-08T02:51:26.579Z,2.68
2023-04-08T02:52:29.486Z,2.66
2023-04-08T02:53:32.335Z,2.61
2023-04-08T02:54:35.643Z,2.61
2023-04-08T02:55:39.612Z,2.57
2023-04-08T02:56:42.471Z,2.55
2023-04-08T02:57:47.534Z,2.55
2023-04-08T02:58:52.244Z,2.54
2023-04-08T02:59:55.240Z,2.52
2023-04-08T03:00:58.201Z,2.52
2023-04-08T03:02:01.140Z,2.50
2023-04-08T03:03:04.119Z,2.50
2023-04-08T03:04:07.180Z,2.51
2023-04-08T03:05:11.041Z,2.48
2023-04-08T03:06:14.065Z,2.44
2023-04-08T03:07:16.966Z,2.46
2023-04-08T03:08:20.561Z,2.43
2023-04-08T03:09:23.483Z,2.42
2023-04-08T03:10:26.462Z,2.43
2023-04-08T03:11:29.450Z,2.38
2023-04-08T03:12:33.153Z,2.37
2023-04-08T03:13:36.210Z,2.36
2023-04-08T03:14:39.085Z,2.34
2023-04-08T03:15:42.339Z,2.32
2023-04-08T03:16:45.419Z,2.33
2023-04-08T03:17:48.382Z,2.28
2023-04-08T03:18:51.666Z,2.26
2023-04-08T03:19:55.265Z,2.24
2023-04-08T03:20:58.197Z,2.24
2023-04-08T03:22:01.242Z,2.22
2023-04-08T03:23:04.325Z,2.20
2023-04-08T03:24:07.242Z,2.19
2023-04-08T03:25:10.232Z,2.18
2023-04-08T03:26:13.207Z,2.17
2023-04-08T03:27:16.075Z,2.15
2023-04-08T03:28:19.010Z,2.14
2023-04-08T03:29:22.071Z,2.14
2023-04-08T03:30:25.430Z,2.12
2023-04-08T03:31:28.433Z,2.10
2023-04-08T03:32:31.536Z,2.07
2023-04-08T03:33:34.474Z,2.06
2023-04-08T03:34:37.343Z,2.07
2023-04-08T03:35:40.344Z,2.04
2023-04-08T03:36:43.223Z,2.03
2023-04-08T03:37:47.161Z,2.03
2023-04-08T03:38:50.218Z,2.00
2023-04-08T03:39:54.882Z,2.01
2023-04-08T03:40:57.768Z,1.99
2023-04-08T03:42:01.206Z,1.96
2023-04-08T03:43:05.831Z,1.94
2023-04-08T03:44:08.720Z,1.94
2023-04-08T03:45:11.717Z,1.92
2023-04-08T03:46:14.804Z,1.94
2023-04-08T03:47:18.160Z,1.92
2023-04-08T03:48:20.971Z,1.90
2023-04-08T03:49:23.958Z,1.90
2023-04-08T03:50:26.931Z,1.87
2023-04-08T03:51:29.839Z,1.88
2023-04-08T03:52:32.687Z,1.88
2023-04-08T03:53:35.940Z,1.86
2023-04-08T03:54:38.803Z,1.84
2023-04-08T03:55:41.709Z,1.82
2023-04-08T03:56:44.563Z,1.81
2023-04-08T03:57:47.470Z,1.81
2023-04-08T03:58:50.549Z,1.80
2023-04-08T03:59:53.753Z,1.80
2023-04-08T04:00:56.627Z,1.79
2023-04-08T04:01:59.533Z,1.79
2023-04-08T04:03:02.480Z,1.76
2023-04-08T04:04:05.798Z,1.75
2023-04-08T04:05:09.132Z,1.73
2023-04-08T04:06:12.078Z,1.72
2023-04-08T04:07:14.922Z,1.71
2023-04-08T04:08:17.852Z,1.71
2023-04-08T04:09:20.807Z,1.69
2023-04-08T04:10:23.687Z,1.69
2023-04-08T04:11:27.665Z,1.69
2023-04-08T04:12:30.636Z,1.69
2023-04-08T04:13:33.484Z,1.69
2023-04-08T04:14:36.346Z,1.67
2023-04-08T04:15:40.875Z,1.66
2023-04-08T04:16:43.760Z,1.63
2023-04-08T04:17:50.944Z,1.62
2023-04-08T04:18:54.409Z,1.64
2023-04-08T04:19:57.581Z,1.62
2023-04-08T04:21:00.468Z,1.61
2023-04-08T04:22:03.435Z,1.61
2023-04-08T04:23:06.262Z,1.63
2023-04-08T04:24:09.147Z,1.61
2023-04-08T04:25:12.049Z,1.64
2023-04-08T04:26:15.437Z,1.63
2023-04-08T04:27:18.320Z,1.61
2023-04-08T04:28:21.130Z,1.60
2023-04-08T04:29:23.998Z,1.62
2023-04-08T04:30:27.958Z,1.60
2023-04-08T04:31:30.975Z,1.62
2023-04-08T04:32:33.903Z,1.61
2023-04-08T04:33:36.747Z,1.62
2023-04-08T04:34:39.655Z,1.63
2023-04-08T04:35:42.682Z,1.62
2023-04-08T04:36:46.200Z,1.66
2023-04-08T04:37:50.347Z,1.67
2023-04-08T04:38:53.710Z,1.67
2023-04-08T04:39:56.906Z,1.67
2023-04-08T04:40:59.827Z,1.69
2023-04-08T04:42:03.602Z,1.69
2023-04-08T04:43:06.486Z,1.70
2023-04-08T04:44:09.343Z,1.71
2023-04-08T04:45:12.688Z,1.71
2023-04-08T04:46:16.257Z,1.72
2023-04-08T04:47:19.174Z,1.73
2023-04-08T04:48:22.120Z,1.74
2023-04-08T04:49:24.989Z,1.75
2023-04-08T04:50:28.310Z,1.77
2023-04-08T04:51:33.929Z,1.79
2023-04-08T04:52:37.421Z,1.80
2023-04-08T04:53:40.642Z,1.81
2023-04-08T04:54:43.945Z,1.83
2023-04-08T04:55:46.795Z,1.86
2023-04-08T04:56:49.646Z,1.89
2023-04-08T04:57:52.455Z,1.92
2023-04-08T04:58:55.406Z,1.96
2023-04-08T04:59:58.327Z,1.99
2023-04-08T05:01:01.458Z,2.01
2023-04-08T05:02:04.455Z,2.05
2023-04-08T05:03:07.715Z,2.08
2023-04-08T05:04:10.761Z,2.13
2023-04-08T05:05:13.801Z,2.18
2023-04-08T05:06:16.799Z,2.25
2023-04-08T05:07:20.020Z,2.28
2023-04-08T05:08:22.903Z,2.29
2023-04-08T05:09:26.118Z,2.37
2023-04-08T05:10:29.045Z,2.39
2023-04-08T05:11:31.932Z,2.45
2023-04-08T05:12:34.814Z,2.54
2023-04-08T05:13:37.678Z,2.55
2023-04-08T05:14:42.281Z,2.61
2023-04-08T05:15:47.863Z,2.69
2023-04-08T05:16:50.902Z,2.72
2023-04-08T05:17:53.830Z,2.74
2023-04-08T05:18:57.223Z,2.75
2023-04-08T05:20:00.415Z,2.81
2023-04-08T05:21:03.490Z,2.87
2023-04-08T05:22:06.508Z,2.93
2023-04-08T05:23:09.494Z,3.00
2023-04-08T05:24:12.364Z,3.02
2023-04-08T05:25:15.664Z,3.10
2023-04-08T05:26:20.406Z,3.14
2023-04-08T05:27:23.484Z,3.17
2023-04-08T05:28:26.373Z,3.26
2023-04-08T05:29:29.341Z,3.30
2023-04-08T05:30:32.331Z,3.33
2023-04-08T05:31:35.600Z,3.44
2023-04-08T05:32:38.943Z,3.49
2023-04-08T05:33:42.050Z,3.57
2023-04-08T05:34:45.757Z,3.69
2023-04-08T05:35:48.643Z,3.76
2023-04-08T05:36:54.532Z,3.84
2023-04-08T05:37:57.637Z,3.96
2023-04-08T05:39:02.233Z,4.00
2023-04-08T05:40:06.993Z,4.12
2023-04-08T05:41:10.136Z,4.20
2023-04-08T05:42:13.986Z,4.29
2023-04-08T05:43:16.991Z,4.51
2023-04-08T05:44:19.844Z,4.66
2023-04-08T05:45:22.757Z,4.83
2023-04-08T05:46:25.747Z,4.95
2023-04-08T05:47:28.826Z,5.05
2023-04-08T05:48:31.688Z,5.14
2023-04-08T05:49:34.600Z,5.21
2023-04-08T05:50:37.491Z,5.29
2023-04-08T05:51:40.476Z,5.37
2023-04-08T05:52:47.386Z,5.44
2023-04-08T05:53:50.383Z,5.52
2023-04-08T05:54:53.728Z,5.62
2023-04-08T05:55:56.713Z,5.72
2023-04-08T05:56:59.577Z,5.80
2023-04-08T05:58:02.454Z,5.88
2023-04-08T05:59:05.668Z,5.97
2023-04-08T06:00:10.613Z,6.07
2023-04-08T06:01:14.060Z,6.18
2023-04-08T06:02:17.035Z,6.25
2023-04-08T06:03:20.871Z,6.31
2023-04-08T06:04:24.152Z,6.36
2023-04-08T06:05:27.202Z,6.42
2023-04-08T06:06:30.031Z,6.49
2023-04-08T06:07:33.452Z,6.61
2023-04-08T06:08:36.593Z,6.72
2023-04-08T06:09:39.434Z,6.93
2023-04-08T06:10:49.434Z,7.11
2023-04-08T06:11:52.565Z,7.40
2023-04-08T06:12:55.395Z,7.57
2023-04-08T06:13:58.369Z,7.76
2023-04-08T06:15:01.242Z,7.94
2023-04-08T06:16:14.457Z,8.14
2023-04-08T06:17:17.464Z,8.48
2023-04-08T06:18:20.668Z,8.61
2023-04-08T06:19:24.822Z,8.76
2023-04-08T06:20:28.460Z,8.83
2023-04-08T06:21:31.843Z,8.90
2023-04-08T06:22:36.179Z,8.99
2023-04-08T06:23:39.473Z,9.14
2023-04-08T06:24:42.566Z,9.32
2023-04-08T06:25:45.462Z,9.46
2023-04-08T06:26:48.326Z,9.62
2023-04-08T06:27:51.218Z,9.78
2023-04-08T06:28:54.141Z,9.90
2023-04-08T06:29:57.302Z,9.98
2023-04-08T06:31:00.613Z,10.14
2023-04-08T06:32:03.584Z,10.33
2023-04-08T06:33:06.621Z,10.46
2023-04-08T06:34:09.560Z,10.57
2023-04-08T06:35:12.466Z,10.66
2023-04-08T06:36:15.887Z,10.73
2023-04-08T06:37:18.923Z,10.80
2023-04-08T06:38:21.817Z,10.85
2023-04-08T06:39:24.677Z,10.90
2023-04-08T06:40:27.619Z,10.98
2023-04-08T06:41:31.522Z,11.08
2023-04-08T06:42:43.185Z,11.19
2023-04-08T06:44:06.281Z,11.29
2023-04-08T06:45:09.780Z,11.39
2023-04-08T06:46:13.366Z,11.49
2023-04-08T06:47:17.751Z,11.58
2023-04-08T06:48:21.067Z,11.66
2023-04-08T06:49:24.106Z,11.73
2023-04-08T06:50:27.170Z,11.76
2023-04-08T06:51:31.598Z,11.83
2023-04-08T06:52:34.494Z,11.97
2023-04-08T06:53:37.414Z,12.04
2023-04-08T06:54:41.185Z,12.09
2023-04-08T06:55:44.105Z,12.12
2023-04-08T06:56:46.941Z,12.18
2023-04-08T06:57:49.838Z,12.22
2023-04-08T06:58:53.554Z,12.24
2023-04-08T06:59:56.626Z,12.27
2023-04-08T07:01:00.680Z,12.23
2023-04-08T07:02:04.050Z,12.29
2023-04-08T07:03:07.233Z,12.32
2023-04-08T07:04:10.259Z,12.33
2023-04-08T07:05:13.156Z,12.39
2023-04-08T07:06:16.458Z,12.49
2023-04-08T07:07:19.372Z,12.59
2023-04-08T07:08:22.273Z,12.57
2023-04-08T07:09:25.418Z,12.56
2023-04-08T07:10:31.764Z,12.57
2023-04-08T07:11:34.757Z,12.58
2023-04-08T07:12:37.777Z,12.68
2023-04-08T07:13:40.670Z,12.72
2023-04-08T07:14:43.719Z,12.74
2023-04-08T07:15:46.905Z,12.78
2023-04-08T07:16:49.843Z,12.84
2023-04-08T07:17:52.859Z,12.84
2023-04-08T07:18:55.794Z,12.92
2023-04-08T07:19:58.642Z,12.87
2023-04-08T07:21:01.933Z,12.85
2023-04-08T07:22:04.853Z,12.81
2023-04-08T07:23:08.060Z,12.79
2023-04-08T07:24:11.203Z,12.81
2023-04-08T07:25:14.155Z,12.86
2023-04-08T07:26:17.040Z,12.89
2023-04-08T07:27:19.914Z,12.91
2023-04-08T07:28:22.849Z,12.97
2023-04-08T07:29:26.106Z,12.94
2023-04-08T07:30:29.069Z,12.90
2023-04-08T07:31:32.093Z,12.93
2023-04-08T07:32:35.399Z,12.91
2023-04-08T07:33:38.303Z,12.90
2023-04-08T07:34:41.205Z,12.92
2023-04-08T07:35:44.249Z,12.93
2023-04-08T07:36:47.194Z,12.85
2023-04-08T07:37:53.169Z,12.75
2023-04-08T07:38:56.345Z,12.76
2023-04-08T07:39:59.502Z,12.75
2023-04-08T07:41:02.547Z,12.71
2023-04-08T07:42:05.423Z,12.69
2023-04-08T07:43:09.582Z,12.67
2023-04-08T07:44:12.497Z,12.67
2023-04-08T07:45:16.035Z,12.68
2023-04-08T07:46:20.132Z,12.67
2023-04-08T07:47:23.142Z,12.69
2023-04-08T07:48:26.361Z,12.74
2023-04-08T07:49:29.171Z,12.81
2023-04-08T07:50:32.377Z,12.89
2023-04-08T07:51:35.272Z,12.82
2023-04-08T07:52:38.121Z,12.71
2023-04-08T07:53:40.982Z,12.69
2023-04-08T07:54:43.991Z,12.68
2023-04-08T07:55:46.860Z,12.61
2023-04-08T07:56:49.897Z,12.59
2023-04-08T07:57:53.060Z,12.62
2023-04-08T07:58:56.471Z,12.61
2023-04-08T07:59:59.595Z,12.60
2023-04-08T08:01:02.587Z,12.63
2023-04-08T08:02:05.465Z,12.66
2023-04-08T08:03:08.555Z,12.65
2023-04-08T08:04:11.900Z,12.64
2023-04-08T08:05:15.101Z,12.59
2023-04-08T08:06:18.217Z,12.60
2023-04-08T08:07:21.387Z,12.55
2023-04-08T08:08:24.280Z,12.49
2023-04-08T08:09:27.167Z,12.46
2023-04-08T08:10:30.073Z,12.39
2023-04-08T08:11:33.453Z,12.43
2023-04-08T08:12:36.380Z,12.50
2023-04-08T08:13:39.510Z,12.58
2023-04-08T08:14:42.399Z,12.60
2023-04-08T08:15:45.513Z,12.60
2023-04-08T08:16:48.724Z,12.55
2023-04-08T08:17:51.660Z,12.53
2023-04-08T08:18:54.758Z,12.49
2023-04-08T08:19:58.382Z,12.47
2023-04-08T08:21:02.208Z,12.49
2023-04-08T08:22:05.099Z,12.48
2023-04-08T08:23:08.501Z,12.43
2023-04-08T08:24:11.442Z,12.43
2023-04-08T08:25:14.459Z,12.46
2023-04-08T08:26:17.500Z,12.50
2023-04-08T08:27:20.449Z,12.54
2023-04-08T08:28:23.843Z,12.56
2023-04-08T08:29:26.718Z,12.58
2023-04-08T08:30:29.787Z,12.62
2023-04-08T08:31:32.840Z,12.66
2023-04-08T08:32:36.603Z,12.72
2023-04-08T08:33:39.459Z,12.78
2023-04-08T08:34:42.467Z,12.83
2023-04-08T08:35:45.583Z,12.86
2023-04-08T08:36:48.533Z,12.88
2023-04-08T08:37:51.375Z,12.89
2023-04-08T08:38:54.393Z,12.90
2023-04-08T08:39:57.302Z,12.88
2023-04-08T08:41:00.890Z,12.86
2023-04-08T08:42:03.798Z,12.87
2023-04-08T08:43:06.739Z,12.89
2023-04-08T08:44:10.230Z,12.95
2023-04-08T08:45:13.271Z,12.98
2023-04-08T08:46:18.339Z,13.05
2023-04-08T08:47:21.384Z,13.11
2023-04-08T08:48:24.543Z,13.14
2023-04-08T08:49:27.631Z,13.15
2023-04-08T08:50:30.498Z,13.14
2023-04-08T08:51:34.206Z,13.17
2023-04-08T08:52:37.096Z,13.19
2023-04-08T08:53:45.262Z,13.25
2023-04-08T08:54:48.595Z,13.28
2023-04-08T08:56:16.243Z,13.33
2023-04-08T08:57:19.530Z,13.38
2023-04-08T08:58:22.490Z,13.40
2023-04-08T08:59:25.652Z,13.43
2023-04-08T09:00:35.893Z,13.46
2023-04-08T09:01:40.847Z,13.42
2023-04-08T09:02:44.288Z,13.44
2023-04-08T09:03:47.474Z,13.51
2023-04-08T09:05:11.118Z,13.60
2023-04-08T09:06:18.470Z,13.69
2023-04-08T09:07:26.063Z,13.82
2023-04-08T09:08:32.599Z,13.89
2023-04-08T09:09:51.661Z,13.98
2023-04-08T09:10:55.902Z,14.05
2023-04-08T09:12:05.267Z,14.08
2023-04-08T09:13:08.255Z,14.18
2023-04-08T09:14:25.740Z,14.21
2023-04-08T09:15:28.726Z,14.14
2023-04-08T09:16:32.395Z,14.05
2023-04-08T09:17:37.651Z,14.02
2023-04-08T09:18:43.447Z,14.04
2023-04-08T09:20:18.695Z,14.09
2023-04-08T09:21:25.103Z,14.19
2023-04-08T09:22:27.975Z,14.30
2023-04-08T09:23:45.465Z,14.41
2023-04-08T09:24:48.422Z,14.49
2023-04-08T09:25:51.412Z,14.52
2023-04-08T09:26:54.258Z,14.58
2023-04-08T09:27:57.772Z,14.67
2023-04-08T09:29:18.401Z,14.70
2023-04-08T09:30:28.656Z,14.69
2023-04-08T09:31:38.322Z,14.74
2023-04-08T09:32:52.528Z,14.74
2023-04-08T09:33:58.897Z,14.72
2023-04-08T09:35:01.796Z,14.85
2023-04-08T09:36:05.376Z,14.96
2023-04-08T09:37:08.363Z,15.03
2023-04-08T09:38:11.217Z,15.10
2023-04-08T09:39:14.038Z,15.21
2023-04-08T09:40:17.933Z,15.35
2023-04-08T09:41:23.519Z,15.49
2023-04-08T09:42:27.114Z,15.62
2023-04-08T09:43:30.034Z,15.73
2023-04-08T09:44:34.687Z,15.82
2023-04-08T09:45:42.790Z,15.90
2023-04-08T09:46:54.216Z,15.99
2023-04-08T09:48:05.053Z,16.09
2023-04-08T09:49:17.965Z,16.15
2023-04-08T09:50:24.901Z,16.24
2023-04-08T09:51:33.325Z,16.27
2023-04-08T09:52:48.563Z,16.33
2023-04-08T09:54:00.322Z,16.36
2023-04-08T09:55:05.152Z,16.41
2023-04-08T09:56:11.904Z,16.46
2023-04-08T09:57:21.417Z,16.51
2023-04-08T09:58:38.775Z,16.55
2023-04-08T09:59:49.371Z,16.60
2023-04-08T10:00:54.247Z,16.60
2023-04-08T10:02:00.947Z,16.61
2023-04-08T10:03:34.940Z,16.68
2023-04-08T10:04:42.084Z,16.78
2023-04-08T10:05:47.047Z,16.77
2023-04-08T10:06:55.527Z,16.81
2023-04-08T10:07:59.156Z,16.84
2023-04-08T10:09:02.992Z,16.85
2023-04-08T10:10:08.048Z,16.85
2023-04-08T10:11:11.436Z,16.65
2023-04-08T10:12:14.761Z,16.44
2023-04-08T10:13:17.946Z,16.30
2023-04-08T10:14:22.313Z,16.17
2023-04-08T10:15:27.305Z,16.21
2023-04-08T10:16:30.396Z,16.39
2023-04-08T10:17:36.942Z,16.45
2023-04-08T10:18:39.993Z,16.60
2023-04-08T10:19:43.150Z,16.75
2023-04-08T10:20:47.485Z,16.87
2023-04-08T10:21:50.572Z,16.90
2023-04-08T10:22:53.445Z,16.91
2023-04-08T10:24:06.023Z,16.88
2023-04-08T10:25:37.015Z,16.82
2023-04-08T10:26:44.469Z,16.76
2023-04-08T10:27:47.845Z,16.66
2023-04-08T10:28:50.715Z,16.59
2023-04-08T10:29:53.604Z,16.58
2023-04-08T10:30:57.732Z,16.55
2023-04-08T10:32:02.039Z,16.53
2023-04-08T10:33:11.470Z,16.48
2023-04-08T10:34:21.538Z,16.60
2023-04-08T10:35:35.833Z,16.66
2023-04-08T10:36:38.754Z,16.79
2023-04-08T10:37:41.938Z,16.90
2023-04-08T10:38:46.838Z,17.02
2023-04-08T10:39:51.473Z,17.08
2023-04-08T10:40:55.135Z,17.11
2023-04-08T10:41:58.149Z,17.16
2023-04-08T10:43:01.159Z,17.27
2023-04-08T10:44:04.316Z,17.34
2023-04-08T10:45:07.693Z,17.39
2023-04-08T10:46:11.003Z,17.47
2023-04-08T10:47:14.144Z,17.56
2023-04-08T10:48:22.944Z,17.67
2023-04-08T10:49:33.424Z,17.67
2023-04-08T10:50:36.815Z,17.67
2023-04-08T10:51:40.459Z,17.66
2023-04-08T10:52:47.325Z,17.67
2023-04-08T10:53:50.471Z,17.74
2023-04-08T10:54:54.924Z,17.80
2023-04-08T10:56:15.699Z,17.84
2023-04-08T10:57:24.942Z,17.90
2023-04-08T10:58:27.839Z,17.94
2023-04-08T10:59:33.270Z,17.93
2023-04-08T11:00:38.514Z,17.97
2023-04-08T11:01:42.084Z,17.99
2023-04-08T11:02:45.484Z,17.98
2023-04-08T11:03:49.944Z,18.03
2023-04-08T11:04:54.561Z,18.12
2023-04-08T11:05:58.265Z,18.17
2023-04-08T11:07:05.997Z,18.22
2023-04-08T11:08:08.996Z,18.24
2023-04-08T11:09:12.050Z,18.23
2023-04-08T11:10:14.988Z,18.32
2023-04-08T11:11:19.342Z,18.38
2023-04-08T11:12:23.132Z,18.49
2023-04-08T11:13:25.992Z,18.57
2023-04-08T11:14:29.074Z,18.56
2023-04-08T11:15:32.590Z,18.55
2023-04-08T11:16:38.092Z,18.57
2023-04-08T11:17:42.331Z,18.62
2023-04-08T11:18:46.236Z,18.74
2023-04-08T11:19:49.268Z,18.84
2023-04-08T11:20:53.092Z,18.85
2023-04-08T11:21:55.976Z,18.82
2023-04-08T11:22:58.926Z,18.67
2023-04-08T11:24:01.897Z,18.47
2023-04-08T11:25:08.243Z,18.28
2023-04-08T11:26:11.623Z,18.08
2023-04-08T11:27:15.879Z,18.01
2023-04-08T11:28:19.751Z,18.04
2023-04-08T11:29:22.800Z,18.13
2023-04-08T11:30:25.752Z,18.25
2023-04-08T11:31:29.673Z,18.37
2023-04-08T11:32:33.697Z,18.42
2023-04-08T11:33:37.117Z,18.28
2023-04-08T11:34:40.724Z,18.20
2023-04-08T11:35:44.746Z,18.21
2023-04-08T11:36:47.947Z,18.19
2023-04-08T11:37:52.636Z,18.26
2023-04-08T11:38:55.906Z,18.38
2023-04-08T11:39:58.853Z,18.54
2023-04-08T11:41:01.720Z,18.69
2023-04-08T11:42:04.670Z,18.76
2023-04-08T11:43:11.862Z,18.84
2023-04-08T11:44:14.820Z,18.85
2023-04-08T11:45:21.429Z,18.95
2023-04-08T11:46:24.933Z,19.10
2023-04-08T11:47:34.189Z,19.16
2023-04-08T11:48:38.647Z,19.22
2023-04-08T11:49:45.789Z,19.24
2023-04-08T11:50:51.271Z,19.29
2023-04-08T11:51:56.895Z,19.36
2023-04-08T11:52:59.852Z,19.36
2023-04-08T11:54:08.942Z,19.31
2023-04-08T11:55:21.821Z,19.20
2023-04-08T11:56:26.839Z,19.09
2023-04-08T11:57:30.322Z,19.04
2023-04-08T11:58:33.544Z,19.03
2023-04-08T11:59:36.981Z,19.05
2023-04-08T12:00:40.157Z,18.97
2023-04-08T12:01:43.349Z,18.81
2023-04-08T12:02:48.178Z,18.60
2023-04-08T12:04:02.405Z,18.37
2023-04-08T12:05:05.973Z,18.16
2023-04-08T12:06:09.697Z,17.97
2023-04-08T12:07:13.549Z,17.90
2023-04-08T12:08:16.415Z,17.95
2023-04-08T12:09:19.410Z,18.09
2023-04-08T12:10:22.473Z,18.32
2023-04-08T12:11:25.483Z,18.54
2023-04-08T12:12:28.430Z,18.71
2023-04-08T12:13:31.553Z,18.72
2023-04-08T12:14:34.637Z,18.81
2023-04-08T12:15:37.913Z,19.00
2023-04-08T12:16:40.908Z,19.19
2023-04-08T12:17:44.337Z,19.44
2023-04-08T12:18:47.286Z,19.73
2023-04-08T12:19:50.427Z,20.01
2023-04-08T12:20:53.565Z,20.24
2023-04-08T12:21:56.414Z,20.46
2023-04-08T12:22:59.410Z,20.65
2023-04-08T12:24:02.321Z,20.84
2023-04-08T12:25:06.432Z,20.90
2023-04-08T12:26:09.471Z,20.90
2023-04-08T12:27:12.358Z,21.07
2023-04-08T12:28:15.450Z,21.24
2023-04-08T12:29:18.335Z,21.32
2023-04-08T12:30:21.383Z,21.18
2023-04-08T12:31:24.365Z,20.88
2023-04-08T12:32:27.296Z,20.61
2023-04-08T12:33:30.716Z,20.48
2023-04-08T12:34:33.649Z,20.36
2023-04-08T12:35:37.173Z,20.31
2023-04-08T12:36:41.726Z,20.38
2023-04-08T12:37:44.815Z,20.56
2023-04-08T12:38:47.727Z,20.79
2023-04-08T12:39:50.755Z,20.99
2023-04-08T12:40:53.988Z,21.21
2023-04-08T12:41:57.052Z,21.32
2023-04-08T12:42:59.910Z,21.25
2023-04-08T12:44:02.873Z,21.26
2023-04-08T12:45:06.689Z,21.30
2023-04-08T12:46:09.536Z,21.29
2023-04-08T12:47:12.571Z,21.28
2023-04-08T12:48:15.558Z,21.32
2023-04-08T12:49:18.464Z,21.26
2023-04-08T12:50:21.533Z,21.18
2023-04-08T12:51:26.151Z,21.15
2023-04-08T12:52:29.020Z,21.02
2023-04-08T12:53:31.942Z,20.96
2023-04-08T12:54:34.873Z,20.94
2023-04-08T12:55:37.779Z,20.86
2023-04-08T12:56:40.852Z,20.78
2023-04-08T12:57:43.765Z,20.66
2023-04-08T12:58:47.133Z,20.44
2023-04-08T12:59:49.956Z,20.19
2023-04-08T13:00:52.939Z,19.92
2023-04-08T13:01:56.242Z,19.66
2023-04-08T13:02:59.149Z,19.44
2023-04-08T13:04:02.296Z,19.26
2023-04-08T13:05:05.742Z,19.06
2023-04-08T13:06:08.615Z,18.85
2023-04-08T13:07:11.461Z,18.73
2023-04-08T13:08:14.505Z,18.63
2023-04-08T13:09:18.576Z,18.47
2023-04-08T13:10:21.446Z,18.33
2023-04-08T13:11:24.757Z,18.20
2023-04-08T13:12:27.686Z,18.11
2023-04-08T13:13:30.562Z,18.01
2023-04-08T13:14:33.450Z,17.91
2023-04-08T13:15:37.020Z,17.82
2023-04-08T13:16:39.873Z,17.76
2023-04-08T13:17:42.865Z,17.70
2023-04-08T13:18:45.937Z,17.66
2023-04-08T13:19:50.171Z,17.54
2023-04-08T13:20:54.470Z,17.46
2023-04-08T13:21:57.377Z,17.43
2023-04-08T13:23:01.095Z,17.38
2023-04-08T13:24:04.184Z,17.34
2023-04-08T13:25:07.574Z,17.31
2023-04-08T13:26:10.824Z,17.27
2023-04-08T13:27:13.672Z,17.23
2023-04-08T13:28:16.676Z,17.15
2023-04-08T13:29:19.757Z,17.10
2023-04-08T13:30:22.778Z,17.09
2023-04-08T13:31:26.117Z,17.12
2023-04-08T13:32:29.078Z,17.15
2023-04-08T13:33:31.950Z,17.16
2023-04-08T13:34:34.804Z,17.16
2023-04-08T13:35:37.795Z,17.17
2023-04-08T13:36:40.739Z,17.21
2023-04-08T13:37:43.938Z,17.22
2023-04-08T13:38:46.818Z,17.26
2023-04-08T13:39:49.628Z,17.30
2023-04-08T13:40:52.439Z,17.28
2023-04-08T13:41:55.284Z,17.25
2023-04-08T13:42:58.141Z,17.19
2023-04-08T13:44:01.033Z,17.13
2023-04-08T13:45:04.370Z,17.03
2023-04-08T13:46:08.264Z,16.89
2023-04-08T13:47:11.663Z,16.79
2023-04-08T13:48:14.533Z,16.74
2023-04-08T13:49:17.424Z,16.71
2023-04-08T13:50:20.607Z,16.65
2023-04-08T13:51:23.560Z,16.59
2023-04-08T13:52:26.405Z,16.55
2023-04-08T13:53:29.292Z,16.50
2023-04-08T13:54:32.272Z,16.45
2023-04-08T13:55:35.200Z,16.44
2023-04-08T13:56:38.073Z,16.44
2023-04-08T13:57:41.174Z,16.45
2023-04-08T13:58:46.156Z,16.47
2023-04-08T13:59:52.820Z,16.48
2023-04-08T14:00:56.707Z,16.49
2023-04-08T14:01:59.731Z,16.49
2023-04-08T14:03:02.776Z,16.50